sensor_id;sensor_type;location;lat;lon;timestamp;P1;durP1;ratioP1;P2;durP2;ratioP2
26080;SDS011;13991;51.174;4.438;2023-05-20T00:00:05;27.43;;;6.37;;
26080;SDS011;13991;51.174;4.438;2023-05-20T00:02:32;20.97;;;5.33;;
26080;SDS011;13991;51.174;4.438;2023-05-20T00:04:57;18.60;;;5.70;;
26080;SDS011;13991;51.174;4.438;2023-05-20T00:07:23;28.10;;;5.43;;
26080;SDS011;13991;51.174;4.438;2023-05-20T00:09:49;18.77;;;5.83;;
26080;SDS011;13991;51.174;4.438;2023-05-20T00:12:15;19.10;;;5.70;;
26080;SDS011;13991;51.174;4.438;2023-05-20T00:14:41;22.87;;;5.40;;
26080;SDS011;13991;51.174;4.438;2023-05-20T00:17:06;21.93;;;5.97;;
26080;SDS011;13991;51.174;4.438;2023-05-20T00:19:32;22.70;;;5.77;;
26080;SDS011;13991;51.174;4.438;2023-05-20T00:21:57;18.33;;;5.10;;
26080;SDS011;13991;51.174;4.438;2023-05-20T00:24:23;18.37;;;5.20;;
26080;SDS011;13991;51.174;4.438;2023-05-20T00:26:49;16.10;;;4.73;;
26080;SDS011;13991;51.174;4.438;2023-05-20T00:29:15;17.87;;;4.67;;
26080;SDS011;13991;51.174;4.438;2023-05-20T00:31:41;16.13;;;4.47;;
26080;SDS011;13991;51.174;4.438;2023-05-20T00:34:07;17.37;;;5.30;;
26080;SDS011;13991;51.174;4.438;2023-05-20T00:36:34;14.53;;;4.43;;
26080;SDS011;13991;51.174;4.438;2023-05-20T00:38:59;15.30;;;4.90;;
26080;SDS011;13991;51.174;4.438;2023-05-20T00:41:25;14.67;;;3.33;;
26080;SDS011;13991;51.174;4.438;2023-05-20T00:43:54;9.97;;;3.83;;
26080;SDS011;13991;51.174;4.438;2023-05-20T00:46:23;17.13;;;3.73;;
26080;SDS011;13991;51.174;4.438;2023-05-20T00:48:52;12.77;;;3.13;;
26080;SDS011;13991;51.174;4.438;2023-05-20T00:51:18;13.80;;;3.87;;
26080;SDS011;13991;51.174;4.438;2023-05-20T00:53:44;15.23;;;3.80;;
26080;SDS011;13991;51.174;4.438;2023-05-20T00:56:10;14.63;;;3.23;;
26080;SDS011;13991;51.174;4.438;2023-05-20T00:58:37;13.60;;;3.40;;
26080;SDS011;13991;51.174;4.438;2023-05-20T01:01:03;14.67;;;3.50;;
26080;SDS011;13991;51.174;4.438;2023-05-20T01:03:30;11.40;;;3.23;;
26080;SDS011;13991;51.174;4.438;2023-05-20T01:05:56;16.73;;;3.67;;
26080;SDS011;13991;51.174;4.438;2023-05-20T01:08:22;16.93;;;3.03;;
26080;SDS011;13991;51.174;4.438;2023-05-20T01:10:50;27.00;;;4.00;;
26080;SDS011;13991;51.174;4.438;2023-05-20T01:13:30;16.33;;;3.73;;
26080;SDS011;13991;51.174;4.438;2023-05-20T01:16:00;27.37;;;3.23;;
26080;SDS011;13991;51.174;4.438;2023-05-20T01:18:28;15.90;;;3.03;;
26080;SDS011;13991;51.174;4.438;2023-05-20T01:20:56;24.33;;;3.70;;
26080;SDS011;13991;51.174;4.438;2023-05-20T01:23:33;17.53;;;3.53;;
26080;SDS011;13991;51.174;4.438;2023-05-20T01:26:03;15.67;;;3.47;;
26080;SDS011;13991;51.174;4.438;2023-05-20T01:28:30;14.83;;;3.47;;
26080;SDS011;13991;51.174;4.438;2023-05-20T01:31:00;9.30;;;2.87;;
26080;SDS011;13991;51.174;4.438;2023-05-20T01:33:29;19.97;;;3.10;;
26080;SDS011;13991;51.174;4.438;2023-05-20T01:35:56;16.97;;;2.83;;
26080;SDS011;13991;51.174;4.438;2023-05-20T01:38:23;16.67;;;3.07;;
26080;SDS011;13991;51.174;4.438;2023-05-20T01:40:50;4.27;;;2.10;;
26080;SDS011;13991;51.174;4.438;2023-05-20T01:43:17;10.00;;;2.70;;
26080;SDS011;13991;51.174;4.438;2023-05-20T01:45:43;18.37;;;2.73;;
26080;SDS011;13991;51.174;4.438;2023-05-20T01:48:10;16.37;;;3.40;;
26080;SDS011;13991;51.174;4.438;2023-05-20T01:50:36;12.40;;;2.80;;
26080;SDS011;13991;51.174;4.438;2023-05-20T01:53:02;13.17;;;2.73;;
26080;SDS011;13991;51.174;4.438;2023-05-20T01:55:28;19.23;;;3.50;;
26080;SDS011;13991;51.174;4.438;2023-05-20T01:57:54;12.40;;;3.10;;
26080;SDS011;13991;51.174;4.438;2023-05-20T02:00:20;12.00;;;3.13;;
26080;SDS011;13991;51.174;4.438;2023-05-20T02:02:45;16.17;;;3.17;;
26080;SDS011;13991;51.174;4.438;2023-05-20T02:05:11;12.90;;;4.10;;
26080;SDS011;13991;51.174;4.438;2023-05-20T02:07:37;13.40;;;2.57;;
26080;SDS011;13991;51.174;4.438;2023-05-20T02:10:03;13.10;;;3.00;;
26080;SDS011;13991;51.174;4.438;2023-05-20T02:12:29;20.83;;;3.20;;
26080;SDS011;13991;51.174;4.438;2023-05-20T02:14:55;15.83;;;3.47;;
26080;SDS011;13991;51.174;4.438;2023-05-20T02:17:21;15.70;;;3.03;;
26080;SDS011;13991;51.174;4.438;2023-05-20T02:19:47;14.93;;;3.47;;
26080;SDS011;13991;51.174;4.438;2023-05-20T02:22:13;15.27;;;3.77;;
26080;SDS011;13991;51.174;4.438;2023-05-20T02:24:39;11.40;;;2.90;;
26080;SDS011;13991;51.174;4.438;2023-05-20T02:27:07;14.93;;;2.93;;
26080;SDS011;13991;51.174;4.438;2023-05-20T02:29:34;16.97;;;3.47;;
26080;SDS011;13991;51.174;4.438;2023-05-20T02:32:00;11.63;;;3.60;;
26080;SDS011;13991;51.174;4.438;2023-05-20T02:34:26;11.47;;;3.33;;
26080;SDS011;13991;51.174;4.438;2023-05-20T02:36:54;10.77;;;2.87;;
26080;SDS011;13991;51.174;4.438;2023-05-20T02:39:20;11.40;;;3.37;;
26080;SDS011;13991;51.174;4.438;2023-05-20T02:41:46;16.40;;;3.77;;
26080;SDS011;13991;51.174;4.438;2023-05-20T02:44:12;10.03;;;3.60;;
26080;SDS011;13991;51.174;4.438;2023-05-20T02:46:37;10.67;;;3.33;;
26080;SDS011;13991;51.174;4.438;2023-05-20T02:49:03;15.40;;;4.10;;
26080;SDS011;13991;51.174;4.438;2023-05-20T02:51:29;16.40;;;3.50;;
26080;SDS011;13991;51.174;4.438;2023-05-20T02:54:00;12.33;;;3.93;;
26080;SDS011;13991;51.174;4.438;2023-05-20T02:56:26;18.83;;;3.30;;
26080;SDS011;13991;51.174;4.438;2023-05-20T02:58:53;17.10;;;4.27;;
26080;SDS011;13991;51.174;4.438;2023-05-20T03:01:19;16.20;;;3.43;;
26080;SDS011;13991;51.174;4.438;2023-05-20T03:03:45;20.03;;;4.30;;
26080;SDS011;13991;51.174;4.438;2023-05-20T03:06:10;11.67;;;3.90;;
26080;SDS011;13991;51.174;4.438;2023-05-20T03:08:37;16.80;;;4.40;;
26080;SDS011;13991;51.174;4.438;2023-05-20T03:11:03;24.30;;;4.13;;
26080;SDS011;13991;51.174;4.438;2023-05-20T03:13:29;13.27;;;3.37;;
26080;SDS011;13991;51.174;4.438;2023-05-20T03:15:55;13.50;;;4.13;;
26080;SDS011;13991;51.174;4.438;2023-05-20T03:18:20;23.33;;;4.27;;
26080;SDS011;13991;51.174;4.438;2023-05-20T03:20:46;23.80;;;4.07;;
26080;SDS011;13991;51.174;4.438;2023-05-20T03:23:12;16.60;;;3.87;;
26080;SDS011;13991;51.174;4.438;2023-05-20T03:25:37;23.97;;;3.83;;
26080;SDS011;13991;51.174;4.438;2023-05-20T03:28:04;15.70;;;4.43;;
26080;SDS011;13991;51.174;4.438;2023-05-20T03:30:30;15.83;;;4.60;;
26080;SDS011;13991;51.174;4.438;2023-05-20T03:32:56;15.90;;;4.03;;
26080;SDS011;13991;51.174;4.438;2023-05-20T03:35:23;15.57;;;4.23;;
26080;SDS011;13991;51.174;4.438;2023-05-20T03:37:49;18.33;;;4.30;;
26080;SDS011;13991;51.174;4.438;2023-05-20T03:40:17;14.03;;;4.70;;
26080;SDS011;13991;51.174;4.438;2023-05-20T03:42:44;13.33;;;4.10;;
26080;SDS011;13991;51.174;4.438;2023-05-20T03:45:10;16.97;;;3.67;;
26080;SDS011;13991;51.174;4.438;2023-05-20T03:47:36;16.93;;;4.03;;
26080;SDS011;13991;51.174;4.438;2023-05-20T03:50:01;12.33;;;3.70;;
26080;SDS011;13991;51.174;4.438;2023-05-20T03:52:27;21.67;;;4.20;;
26080;SDS011;13991;51.174;4.438;2023-05-20T03:54:53;13.23;;;4.00;;
26080;SDS011;13991;51.174;4.438;2023-05-20T03:57:18;15.93;;;4.70;;
26080;SDS011;13991;51.174;4.438;2023-05-20T03:59:44;18.87;;;4.67;;
26080;SDS011;13991;51.174;4.438;2023-05-20T04:02:10;25.00;;;4.20;;
26080;SDS011;13991;51.174;4.438;2023-05-20T04:04:36;14.67;;;4.37;;
26080;SDS011;13991;51.174;4.438;2023-05-20T04:07:02;13.30;;;4.03;;
26080;SDS011;13991;51.174;4.438;2023-05-20T04:09:29;23.67;;;5.07;;
26080;SDS011;13991;51.174;4.438;2023-05-20T04:11:55;12.60;;;3.97;;
26080;SDS011;13991;51.174;4.438;2023-05-20T04:14:21;21.80;;;4.53;;
26080;SDS011;13991;51.174;4.438;2023-05-20T04:16:46;21.23;;;4.43;;
26080;SDS011;13991;51.174;4.438;2023-05-20T04:19:14;25.20;;;4.73;;
26080;SDS011;13991;51.174;4.438;2023-05-20T04:21:41;17.73;;;4.20;;
26080;SDS011;13991;51.174;4.438;2023-05-20T04:24:07;10.33;;;3.77;;
26080;SDS011;13991;51.174;4.438;2023-05-20T04:26:33;22.23;;;4.37;;
26080;SDS011;13991;51.174;4.438;2023-05-20T04:28:59;11.13;;;4.60;;
26080;SDS011;13991;51.174;4.438;2023-05-20T04:31:28;18.90;;;4.73;;
26080;SDS011;13991;51.174;4.438;2023-05-20T04:33:54;17.27;;;4.37;;
26080;SDS011;13991;51.174;4.438;2023-05-20T04:36:20;19.20;;;4.43;;
26080;SDS011;13991;51.174;4.438;2023-05-20T04:38:46;14.87;;;5.07;;
26080;SDS011;13991;51.174;4.438;2023-05-20T04:41:13;23.03;;;4.70;;
26080;SDS011;13991;51.174;4.438;2023-05-20T04:43:40;14.17;;;4.43;;
26080;SDS011;13991;51.174;4.438;2023-05-20T04:46:06;14.53;;;3.83;;
26080;SDS011;13991;51.174;4.438;2023-05-20T04:48:32;15.30;;;4.00;;
26080;SDS011;13991;51.174;4.438;2023-05-20T04:50:58;18.30;;;4.57;;
26080;SDS011;13991;51.174;4.438;2023-05-20T04:53:24;12.53;;;4.40;;
26080;SDS011;13991;51.174;4.438;2023-05-20T04:55:53;18.10;;;4.80;;
26080;SDS011;13991;51.174;4.438;2023-05-20T04:58:20;17.90;;;4.37;;
26080;SDS011;13991;51.174;4.438;2023-05-20T05:00:48;19.90;;;4.73;;
26080;SDS011;13991;51.174;4.438;2023-05-20T05:03:15;21.63;;;4.60;;
26080;SDS011;13991;51.174;4.438;2023-05-20T05:05:41;14.87;;;4.50;;
26080;SDS011;13991;51.174;4.438;2023-05-20T05:08:07;24.60;;;5.13;;
26080;SDS011;13991;51.174;4.438;2023-05-20T05:10:36;25.30;;;5.30;;
26080;SDS011;13991;51.174;4.438;2023-05-20T05:13:02;17.27;;;4.93;;
26080;SDS011;13991;51.174;4.438;2023-05-20T05:15:28;19.73;;;4.73;;
26080;SDS011;13991;51.174;4.438;2023-05-20T05:17:53;11.83;;;4.23;;
26080;SDS011;13991;51.174;4.438;2023-05-20T05:20:20;11.07;;;4.50;;
26080;SDS011;13991;51.174;4.438;2023-05-20T05:22:46;18.73;;;4.50;;
26080;SDS011;13991;51.174;4.438;2023-05-20T05:25:12;11.07;;;4.10;;
26080;SDS011;13991;51.174;4.438;2023-05-20T05:27:38;17.07;;;4.20;;
26080;SDS011;13991;51.174;4.438;2023-05-20T05:30:04;9.00;;;4.37;;
26080;SDS011;13991;51.174;4.438;2023-05-20T05:32:31;15.03;;;4.13;;
26080;SDS011;13991;51.174;4.438;2023-05-20T05:34:57;20.27;;;4.93;;
26080;SDS011;13991;51.174;4.438;2023-05-20T05:37:22;22.00;;;4.63;;
26080;SDS011;13991;51.174;4.438;2023-05-20T05:39:48;14.33;;;4.53;;
26080;SDS011;13991;51.174;4.438;2023-05-20T05:42:14;11.57;;;4.10;;
26080;SDS011;13991;51.174;4.438;2023-05-20T05:44:39;14.80;;;4.47;;
26080;SDS011;13991;51.174;4.438;2023-05-20T05:47:05;14.17;;;5.17;;
26080;SDS011;13991;51.174;4.438;2023-05-20T05:49:32;12.27;;;4.30;;
26080;SDS011;13991;51.174;4.438;2023-05-20T05:51:58;8.13;;;3.53;;
26080;SDS011;13991;51.174;4.438;2023-05-20T05:54:23;19.33;;;4.13;;
26080;SDS011;13991;51.174;4.438;2023-05-20T05:56:52;15.70;;;4.83;;
26080;SDS011;13991;51.174;4.438;2023-05-20T05:59:20;22.30;;;4.20;;
26080;SDS011;13991;51.174;4.438;2023-05-20T06:01:46;17.00;;;4.97;;
26080;SDS011;13991;51.174;4.438;2023-05-20T06:04:12;13.77;;;4.27;;
26080;SDS011;13991;51.174;4.438;2023-05-20T06:06:37;12.33;;;4.50;;
26080;SDS011;13991;51.174;4.438;2023-05-20T06:09:04;18.03;;;4.60;;
26080;SDS011;13991;51.174;4.438;2023-05-20T06:11:30;13.90;;;4.10;;
26080;SDS011;13991;51.174;4.438;2023-05-20T06:13:56;17.00;;;4.40;;
26080;SDS011;13991;51.174;4.438;2023-05-20T06:16:22;17.47;;;4.50;;
26080;SDS011;13991;51.174;4.438;2023-05-20T06:18:48;18.40;;;4.70;;
26080;SDS011;13991;51.174;4.438;2023-05-20T06:21:14;12.77;;;4.03;;
26080;SDS011;13991;51.174;4.438;2023-05-20T06:23:40;16.00;;;4.43;;
26080;SDS011;13991;51.174;4.438;2023-05-20T06:26:07;25.17;;;4.47;;
26080;SDS011;13991;51.174;4.438;2023-05-20T06:28:34;18.27;;;5.03;;
26080;SDS011;13991;51.174;4.438;2023-05-20T06:31:00;9.73;;;3.93;;
26080;SDS011;13991;51.174;4.438;2023-05-20T06:33:26;17.40;;;4.30;;
26080;SDS011;13991;51.174;4.438;2023-05-20T06:41:24;11.47;;;4.10;;
26080;SDS011;13991;51.174;4.438;2023-05-20T06:43:51;16.73;;;4.03;;
26080;SDS011;13991;51.174;4.438;2023-05-20T06:46:20;12.97;;;4.17;;
26080;SDS011;13991;51.174;4.438;2023-05-20T06:48:46;16.10;;;4.60;;
26080;SDS011;13991;51.174;4.438;2023-05-20T06:51:12;12.30;;;4.03;;
26080;SDS011;13991;51.174;4.438;2023-05-20T06:53:39;10.30;;;3.47;;
26080;SDS011;13991;51.174;4.438;2023-05-20T06:56:05;13.17;;;4.13;;
26080;SDS011;13991;51.174;4.438;2023-05-20T06:58:39;9.87;;;3.80;;
26080;SDS011;13991;51.174;4.438;2023-05-20T07:01:04;14.23;;;4.13;;
26080;SDS011;13991;51.174;4.438;2023-05-20T07:06:03;16.07;;;3.90;;
26080;SDS011;13991;51.174;4.438;2023-05-20T07:08:29;13.57;;;3.80;;
26080;SDS011;13991;51.174;4.438;2023-05-20T07:10:55;14.40;;;3.80;;
26080;SDS011;13991;51.174;4.438;2023-05-20T07:13:21;16.17;;;3.47;;
26080;SDS011;13991;51.174;4.438;2023-05-20T07:15:50;12.70;;;3.80;;
26080;SDS011;13991;51.174;4.438;2023-05-20T07:18:16;10.30;;;4.30;;
26080;SDS011;13991;51.174;4.438;2023-05-20T07:20:42;22.70;;;3.87;;
26080;SDS011;13991;51.174;4.438;2023-05-20T07:23:09;14.50;;;4.00;;
26080;SDS011;13991;51.174;4.438;2023-05-20T07:25:34;8.37;;;3.07;;
26080;SDS011;13991;51.174;4.438;2023-05-20T07:28:00;8.17;;;3.63;;
26080;SDS011;13991;51.174;4.438;2023-05-20T07:30:26;20.03;;;4.23;;
26080;SDS011;13991;51.174;4.438;2023-05-20T07:32:52;7.57;;;3.40;;
26080;SDS011;13991;51.174;4.438;2023-05-20T07:35:22;15.40;;;3.53;;
26080;SDS011;13991;51.174;4.438;2023-05-20T07:37:50;10.33;;;2.97;;
26080;SDS011;13991;51.174;4.438;2023-05-20T07:43:28;22.83;;;3.23;;
26080;SDS011;13991;51.174;4.438;2023-05-20T07:45:54;14.67;;;2.90;;
26080;SDS011;13991;51.174;4.438;2023-05-20T07:48:20;11.90;;;3.13;;
26080;SDS011;13991;51.174;4.438;2023-05-20T07:50:58;9.97;;;2.83;;
26080;SDS011;13991;51.174;4.438;2023-05-20T07:54:26;6.47;;;2.50;;
26080;SDS011;13991;51.174;4.438;2023-05-20T08:04:21;8.13;;;2.87;;
26080;SDS011;13991;51.174;4.438;2023-05-20T08:09:33;8.50;;;2.77;;
26080;SDS011;13991;51.174;4.438;2023-05-20T08:11:59;3.77;;;2.30;;
26080;SDS011;13991;51.174;4.438;2023-05-20T08:14:25;12.17;;;2.67;;
26080;SDS011;13991;51.174;4.438;2023-05-20T08:16:54;8.90;;;3.10;;
26080;SDS011;13991;51.174;4.438;2023-05-20T08:19:19;6.83;;;2.70;;
26080;SDS011;13991;51.174;4.438;2023-05-20T08:21:45;5.93;;;2.47;;
26080;SDS011;13991;51.174;4.438;2023-05-20T08:24:11;9.03;;;2.20;;
26080;SDS011;13991;51.174;4.438;2023-05-20T08:26:37;10.40;;;2.90;;
26080;SDS011;13991;51.174;4.438;2023-05-20T08:29:02;11.47;;;2.70;;
26080;SDS011;13991;51.174;4.438;2023-05-20T08:31:28;5.97;;;2.27;;
26080;SDS011;13991;51.174;4.438;2023-05-20T08:33:54;16.30;;;3.30;;
26080;SDS011;13991;51.174;4.438;2023-05-20T08:36:19;9.27;;;2.33;;
26080;SDS011;13991;51.174;4.438;2023-05-20T08:38:45;10.27;;;2.43;;
26080;SDS011;13991;51.174;4.438;2023-05-20T08:41:11;19.87;;;2.50;;
26080;SDS011;13991;51.174;4.438;2023-05-20T08:43:37;11.17;;;2.13;;
26080;SDS011;13991;51.174;4.438;2023-05-20T08:46:02;17.17;;;2.30;;
26080;SDS011;13991;51.174;4.438;2023-05-20T08:48:30;8.27;;;2.33;;
26080;SDS011;13991;51.174;4.438;2023-05-20T08:50:57;8.33;;;1.93;;
26080;SDS011;13991;51.174;4.438;2023-05-20T08:53:24;5.43;;;1.80;;
26080;SDS011;13991;51.174;4.438;2023-05-20T08:55:59;10.03;;;2.00;;
26080;SDS011;13991;51.174;4.438;2023-05-20T08:58:27;9.17;;;2.13;;
26080;SDS011;13991;51.174;4.438;2023-05-20T09:00:54;7.43;;;2.10;;
26080;SDS011;13991;51.174;4.438;2023-05-20T09:03:20;4.50;;;1.80;;
26080;SDS011;13991;51.174;4.438;2023-05-20T09:05:46;10.23;;;2.30;;
26080;SDS011;13991;51.174;4.438;2023-05-20T09:08:12;8.87;;;2.20;;
26080;SDS011;13991;51.174;4.438;2023-05-20T09:10:38;11.40;;;2.23;;
26080;SDS011;13991;51.174;4.438;2023-05-20T09:13:06;6.27;;;2.20;;
26080;SDS011;13991;51.174;4.438;2023-05-20T09:15:33;9.53;;;1.77;;
26080;SDS011;13991;51.174;4.438;2023-05-20T09:18:00;7.87;;;2.20;;
26080;SDS011;13991;51.174;4.438;2023-05-20T09:20:27;8.80;;;2.03;;
26080;SDS011;13991;51.174;4.438;2023-05-20T09:22:59;14.83;;;2.17;;
26080;SDS011;13991;51.174;4.438;2023-05-20T09:25:25;6.57;;;1.43;;
26080;SDS011;13991;51.174;4.438;2023-05-20T09:27:52;6.20;;;2.37;;
26080;SDS011;13991;51.174;4.438;2023-05-20T09:30:19;7.70;;;2.20;;
26080;SDS011;13991;51.174;4.438;2023-05-20T09:32:45;4.23;;;2.33;;
26080;SDS011;13991;51.174;4.438;2023-05-20T09:35:17;14.23;;;2.20;;
26080;SDS011;13991;51.174;4.438;2023-05-20T09:37:43;12.17;;;2.60;;
26080;SDS011;13991;51.174;4.438;2023-05-20T09:40:12;12.77;;;2.00;;
26080;SDS011;13991;51.174;4.438;2023-05-20T09:42:44;5.13;;;2.00;;
26080;SDS011;13991;51.174;4.438;2023-05-20T09:45:15;4.90;;;2.00;;
26080;SDS011;13991;51.174;4.438;2023-05-20T09:47:41;6.27;;;1.77;;
26080;SDS011;13991;51.174;4.438;2023-05-20T09:50:09;8.33;;;2.03;;
26080;SDS011;13991;51.174;4.438;2023-05-20T09:52:35;5.80;;;2.07;;
26080;SDS011;13991;51.174;4.438;2023-05-20T09:55:03;4.63;;;2.33;;
26080;SDS011;13991;51.174;4.438;2023-05-20T09:57:33;9.63;;;2.50;;
26080;SDS011;13991;51.174;4.438;2023-05-20T10:00:01;6.17;;;2.10;;
26080;SDS011;13991;51.174;4.438;2023-05-20T10:02:30;8.07;;;2.23;;
26080;SDS011;13991;51.174;4.438;2023-05-20T10:04:58;4.17;;;1.60;;
26080;SDS011;13991;51.174;4.438;2023-05-20T10:12:50;10.07;;;1.80;;
26080;SDS011;13991;51.174;4.438;2023-05-20T10:18:14;13.03;;;2.60;;
26080;SDS011;13991;51.174;4.438;2023-05-20T10:20:48;17.87;;;2.23;;
26080;SDS011;13991;51.174;4.438;2023-05-20T10:23:21;10.27;;;2.23;;
26080;SDS011;13991;51.174;4.438;2023-05-20T10:25:51;15.07;;;2.47;;
26080;SDS011;13991;51.174;4.438;2023-05-20T10:28:28;8.63;;;2.20;;
26080;SDS011;13991;51.174;4.438;2023-05-20T10:30:55;10.87;;;2.40;;
26080;SDS011;13991;51.174;4.438;2023-05-20T10:33:21;11.33;;;2.37;;
26080;SDS011;13991;51.174;4.438;2023-05-20T10:35:48;7.43;;;2.00;;
26080;SDS011;13991;51.174;4.438;2023-05-20T10:38:15;6.30;;;1.70;;
26080;SDS011;13991;51.174;4.438;2023-05-20T10:40:41;4.77;;;2.13;;
26080;SDS011;13991;51.174;4.438;2023-05-20T10:43:07;5.40;;;2.07;;
26080;SDS011;13991;51.174;4.438;2023-05-20T10:45:35;4.17;;;1.83;;
26080;SDS011;13991;51.174;4.438;2023-05-20T10:48:28;6.27;;;2.30;;
26080;SDS011;13991;51.174;4.438;2023-05-20T10:50:56;11.10;;;2.00;;
26080;SDS011;13991;51.174;4.438;2023-05-20T10:53:24;3.23;;;1.83;;
26080;SDS011;13991;51.174;4.438;2023-05-20T10:55:52;8.93;;;2.10;;
26080;SDS011;13991;51.174;4.438;2023-05-20T10:58:20;4.97;;;2.00;;
26080;SDS011;13991;51.174;4.438;2023-05-20T11:00:47;5.77;;;2.47;;
26080;SDS011;13991;51.174;4.438;2023-05-20T11:03:15;6.53;;;2.00;;
26080;SDS011;13991;51.174;4.438;2023-05-20T11:05:43;9.37;;;2.23;;
26080;SDS011;13991;51.174;4.438;2023-05-20T11:08:10;7.33;;;2.47;;
26080;SDS011;13991;51.174;4.438;2023-05-20T11:10:36;6.33;;;2.30;;
26080;SDS011;13991;51.174;4.438;2023-05-20T11:13:02;7.23;;;1.93;;
26080;SDS011;13991;51.174;4.438;2023-05-20T11:15:30;11.10;;;2.43;;
26080;SDS011;13991;51.174;4.438;2023-05-20T11:17:59;11.07;;;2.50;;
26080;SDS011;13991;51.174;4.438;2023-05-20T11:20:26;4.80;;;2.27;;
26080;SDS011;13991;51.174;4.438;2023-05-20T11:22:52;10.13;;;2.10;;
26080;SDS011;13991;51.174;4.438;2023-05-20T11:25:19;7.77;;;2.03;;
26080;SDS011;13991;51.174;4.438;2023-05-20T11:27:48;11.00;;;2.30;;
26080;SDS011;13991;51.174;4.438;2023-05-20T11:30:14;3.70;;;1.60;;
26080;SDS011;13991;51.174;4.438;2023-05-20T11:33:02;4.93;;;2.00;;
26080;SDS011;13991;51.174;4.438;2023-05-20T11:35:29;4.63;;;1.70;;
26080;SDS011;13991;51.174;4.438;2023-05-20T11:38:02;6.03;;;1.93;;
26080;SDS011;13991;51.174;4.438;2023-05-20T11:40:33;9.87;;;2.03;;
26080;SDS011;13991;51.174;4.438;2023-05-20T11:43:00;6.60;;;2.13;;
26080;SDS011;13991;51.174;4.438;2023-05-20T11:45:27;3.97;;;1.70;;
26080;SDS011;13991;51.174;4.438;2023-05-20T11:48:07;11.47;;;2.30;;
26080;SDS011;13991;51.174;4.438;2023-05-20T11:50:34;4.00;;;1.70;;
26080;SDS011;13991;51.174;4.438;2023-05-20T11:53:04;5.60;;;1.60;;
26080;SDS011;13991;51.174;4.438;2023-05-20T11:55:43;6.27;;;2.23;;
26080;SDS011;13991;51.174;4.438;2023-05-20T11:58:09;7.00;;;2.10;;
26080;SDS011;13991;51.174;4.438;2023-05-20T12:00:37;7.63;;;1.80;;
26080;SDS011;13991;51.174;4.438;2023-05-20T12:03:03;8.63;;;2.10;;
26080;SDS011;13991;51.174;4.438;2023-05-20T12:05:29;7.10;;;2.10;;
26080;SDS011;13991;51.174;4.438;2023-05-20T12:07:54;3.50;;;2.00;;
26080;SDS011;13991;51.174;4.438;2023-05-20T12:10:20;8.93;;;2.07;;
26080;SDS011;13991;51.174;4.438;2023-05-20T12:12:46;9.67;;;1.80;;
26080;SDS011;13991;51.174;4.438;2023-05-20T12:15:12;6.50;;;2.23;;
26080;SDS011;13991;51.174;4.438;2023-05-20T12:17:48;5.67;;;2.10;;
26080;SDS011;13991;51.174;4.438;2023-05-20T12:20:19;8.63;;;2.03;;
26080;SDS011;13991;51.174;4.438;2023-05-20T12:22:48;9.17;;;2.00;;
26080;SDS011;13991;51.174;4.438;2023-05-20T12:25:15;10.60;;;2.63;;
26080;SDS011;13991;51.174;4.438;2023-05-20T12:27:43;22.40;;;2.73;;
26080;SDS011;13991;51.174;4.438;2023-05-20T12:30:19;11.23;;;2.80;;
26080;SDS011;13991;51.174;4.438;2023-05-20T12:32:46;11.23;;;1.97;;
26080;SDS011;13991;51.174;4.438;2023-05-20T12:35:13;7.53;;;2.13;;
26080;SDS011;13991;51.174;4.438;2023-05-20T12:37:40;8.83;;;2.47;;
26080;SDS011;13991;51.174;4.438;2023-05-20T12:40:07;13.10;;;2.33;;
26080;SDS011;13991;51.174;4.438;2023-05-20T12:42:35;5.20;;;2.40;;
26080;SDS011;13991;51.174;4.438;2023-05-20T12:45:05;3.87;;;1.53;;
26080;SDS011;13991;51.174;4.438;2023-05-20T12:47:33;11.90;;;2.10;;
26080;SDS011;13991;51.174;4.438;2023-05-20T12:49:59;10.63;;;2.50;;
26080;SDS011;13991;51.174;4.438;2023-05-20T12:52:28;11.07;;;2.80;;
26080;SDS011;13991;51.174;4.438;2023-05-20T12:54:53;3.80;;;1.63;;
26080;SDS011;13991;51.174;4.438;2023-05-20T12:57:20;10.20;;;1.80;;
26080;SDS011;13991;51.174;4.438;2023-05-20T12:59:46;3.37;;;1.87;;
26080;SDS011;13991;51.174;4.438;2023-05-20T13:02:12;3.73;;;1.90;;
26080;SDS011;13991;51.174;4.438;2023-05-20T13:04:38;5.70;;;1.60;;
26080;SDS011;13991;51.174;4.438;2023-05-20T13:07:04;7.60;;;2.23;;
26080;SDS011;13991;51.174;4.438;2023-05-20T13:09:30;8.50;;;2.13;;
26080;SDS011;13991;51.174;4.438;2023-05-20T13:11:57;3.87;;;1.80;;
26080;SDS011;13991;51.174;4.438;2023-05-20T13:14:24;5.13;;;2.10;;
26080;SDS011;13991;51.174;4.438;2023-05-20T13:16:50;3.87;;;1.97;;
26080;SDS011;13991;51.174;4.438;2023-05-20T13:19:19;16.77;;;2.30;;
26080;SDS011;13991;51.174;4.438;2023-05-20T13:21:46;8.33;;;2.10;;
26080;SDS011;13991;51.174;4.438;2023-05-20T13:24:12;8.80;;;2.13;;
26080;SDS011;13991;51.174;4.438;2023-05-20T13:26:39;7.77;;;1.90;;
26080;SDS011;13991;51.174;4.438;2023-05-20T13:29:05;6.10;;;2.20;;
26080;SDS011;13991;51.174;4.438;2023-05-20T13:31:31;5.70;;;1.90;;
26080;SDS011;13991;51.174;4.438;2023-05-20T13:33:56;6.37;;;2.20;;
26080;SDS011;13991;51.174;4.438;2023-05-20T13:36:24;7.87;;;1.97;;
26080;SDS011;13991;51.174;4.438;2023-05-20T13:38:50;4.93;;;1.67;;
26080;SDS011;13991;51.174;4.438;2023-05-20T13:41:17;8.57;;;2.40;;
26080;SDS011;13991;51.174;4.438;2023-05-20T13:43:42;15.53;;;2.10;;
26080;SDS011;13991;51.174;4.438;2023-05-20T13:46:08;9.37;;;1.73;;
26080;SDS011;13991;51.174;4.438;2023-05-20T13:48:34;4.33;;;1.77;;
26080;SDS011;13991;51.174;4.438;2023-05-20T13:51:00;5.87;;;1.80;;
26080;SDS011;13991;51.174;4.438;2023-05-20T13:53:26;6.90;;;2.50;;
26080;SDS011;13991;51.174;4.438;2023-05-20T13:55:52;3.70;;;1.63;;
26080;SDS011;13991;51.174;4.438;2023-05-20T13:58:18;5.90;;;1.60;;
26080;SDS011;13991;51.174;4.438;2023-05-20T14:00:44;8.40;;;1.77;;
26080;SDS011;13991;51.174;4.438;2023-05-20T14:03:10;5.40;;;1.47;;
26080;SDS011;13991;51.174;4.438;2023-05-20T14:05:35;9.67;;;2.00;;
26080;SDS011;13991;51.174;4.438;2023-05-20T14:08:01;7.57;;;1.87;;
26080;SDS011;13991;51.174;4.438;2023-05-20T14:10:27;11.47;;;1.67;;
26080;SDS011;13991;51.174;4.438;2023-05-20T14:12:53;10.05;;;2.17;;
26080;SDS011;13991;51.174;4.438;2023-05-20T14:15:22;8.83;;;1.90;;
26080;SDS011;13991;51.174;4.438;2023-05-20T14:17:47;6.87;;;2.10;;
26080;SDS011;13991;51.174;4.438;2023-05-20T14:20:13;2.13;;;1.37;;
26080;SDS011;13991;51.174;4.438;2023-05-20T14:22:40;9.47;;;1.63;;
26080;SDS011;13991;51.174;4.438;2023-05-20T14:25:06;5.93;;;1.60;;
26080;SDS011;13991;51.174;4.438;2023-05-20T14:27:32;11.03;;;1.70;;
26080;SDS011;13991;51.174;4.438;2023-05-20T14:29:59;4.47;;;1.77;;
26080;SDS011;13991;51.174;4.438;2023-05-20T14:32:25;12.17;;;1.40;;
26080;SDS011;13991;51.174;4.438;2023-05-20T14:34:52;8.95;;;1.67;;
26080;SDS011;13991;51.174;4.438;2023-05-20T14:37:18;12.17;;;2.13;;
26080;SDS011;13991;51.174;4.438;2023-05-20T14:39:43;7.03;;;1.53;;
26080;SDS011;13991;51.174;4.438;2023-05-20T14:42:10;4.90;;;1.57;;
26080;SDS011;13991;51.174;4.438;2023-05-20T14:44:35;5.10;;;1.97;;
26080;SDS011;13991;51.174;4.438;2023-05-20T14:47:02;4.82;;;2.03;;
26080;SDS011;13991;51.174;4.438;2023-05-20T14:49:28;7.57;;;1.57;;
26080;SDS011;13991;51.174;4.438;2023-05-20T14:51:55;8.13;;;1.63;;
26080;SDS011;13991;51.174;4.438;2023-05-20T14:54:21;5.63;;;1.97;;
26080;SDS011;13991;51.174;4.438;2023-05-20T14:56:49;5.20;;;1.67;;
26080;SDS011;13991;51.174;4.438;2023-05-20T14:59:18;8.60;;;1.80;;
26080;SDS011;13991;51.174;4.438;2023-05-20T15:01:44;5.27;;;1.87;;
26080;SDS011;13991;51.174;4.438;2023-05-20T15:04:10;6.43;;;2.03;;
26080;SDS011;13991;51.174;4.438;2023-05-20T15:06:35;1.83;;;1.17;;
26080;SDS011;13991;51.174;4.438;2023-05-20T15:09:02;3.57;;;1.83;;